Time;durP1;ratioP1;P1;durP2;ratioP2;P2;SDS_P1;SDS_P2;PMS_P1;PMS_P2;Temp;Humidity;BMP_temperature;BMP_pressure;BME280_temperature;BME280_humidity;BME280_pressure;Samples;Min_cycle;Max_cycle;Signal;HPM_P1;HPM_P2
2024/01/02 00:00:34;;;;;;;11.77;8.05;;;;;;;;;;5075049;28;20020;-48
2024/01/02 00:02:59;;;;;;;12.57;8.80;;;;;;;;;;5078021;28;20036;-48
2024/01/02 00:05:24;;;;;;;11.52;8.63;;;;;;;;;;5085864;28;20046;-50
2024/01/02 00:07:50;;;;;;;13.10;8.75;;;;;;;;;;5058069;28;20060;-45
2024/01/02 00:10:15;;;;;;;10.07;8.98;;;;;;;;;;5081853;28;20040;-49
2024/01/02 00:12:41;;;;;;;15.15;8.13;;;;;;;;;;5076764;28;20041;-51
2024/01/02 00:15:07;;;;;;;13.07;9.05;;;;;;;;;;5078353;28;20036;-49
2024/01/02 00:17:32;;;;;;;12.45;7.53;;;;;;;;;;5077436;28;20029;-46
2024/01/02 00:19:58;;;;;;;11.40;7.72;;;;;;;;;;5076725;28;20040;-48
2024/01/02 00:22:24;;;;;;;23.80;11.13;;;;;;;;;;5075772;28;20031;-47
2024/01/02 00:24:49;;;;;;;16.45;7.75;;;;;;;;;;5075222;28;20471;-47
2024/01/02 00:27:14;;;;;;;16.80;8.13;;;;;;;;;;5075061;28;20284;-47
2024/01/02 00:29:40;;;;;;;15.90;7.63;;;;;;;;;;5073623;28;20037;-46
2024/01/02 00:32:05;;;;;;;16.48;7.78;;;;;;;;;;5074799;28;20039;-45
2024/01/02 00:34:31;;;;;;;14.98;7.53;;;;;;;;;;5073335;28;20033;-47
2024/01/02 00:36:57;;;;;;;24.10;10.20;;;;;;;;;;5074079;28;20019;-48
2024/01/02 00:39:22;;;;;;;41.28;15.20;;;;;;;;;;5082622;28;20037;-46
2024/01/02 00:41:49;;;;;;;39.38;13.80;;;;;;;;;;5071008;28;20021;-51
2024/01/02 00:44:15;;;;;;;24.70;9.20;;;;;;;;;;5076004;28;20066;-48
2024/01/02 00:46:40;;;;;;;14.73;6.32;;;;;;;;;;5072319;28;20107;-49
2024/01/02 00:49:06;;;;;;;13.50;6.35;;;;;;;;;;5076776;28;20125;-46
2024/01/02 00:51:31;;;;;;;4.78;4.22;;;;;;;;;;5073483;28;20119;-44
2024/01/02 00:53:58;;;;;;;7.28;3.53;;;;;;;;;;5076275;28;20036;-45
2024/01/02 00:56:24;;;;;;;31.33;13.50;;;;;;;;;;5077473;28;20025;-45
2024/01/02 00:58:51;;;;;;;26.50;11.48;;;;;;;;;;5075375;28;20044;-44
2024/01/02 01:01:19;;;;;;;24.95;10.82;;;;;;;;;;5073926;28;20039;-48
2024/01/02 01:03:45;;;;;;;13.68;7.78;;;;;;;;;;5078776;28;20055;-49
2024/01/02 01:06:10;;;;;;;14.15;8.73;;;;;;;;;;5081610;28;20024;-45
2024/01/02 01:08:36;;;;;;;15.93;9.23;;;;;;;;;;5082165;28;20123;-48
2024/01/02 01:11:01;;;;;;;10.35;6.63;;;;;;;;;;5061192;28;20116;-49
2024/01/02 01:13:26;;;;;;;11.43;6.65;;;;;;;;;;5071513;28;20402;-48
2024/01/02 01:15:52;;;;;;;9.27;5.38;;;;;;;;;;5067266;28;20493;-47
2024/01/02 01:18:17;;;;;;;7.72;5.82;;;;;;;;;;5069352;28;20086;-46
2024/01/02 01:20:43;;;;;;;9.77;6.13;;;;;;;;;;5080642;28;20120;-48
2024/01/02 01:23:08;;;;;;;9.10;5.95;;;;;;;;;;5073536;28;20055;-48
2024/01/02 01:25:34;;;;;;;7.00;5.32;;;;;;;;;;5080975;28;20429;-45
2024/01/02 01:27:59;;;;;;;8.02;6.75;;;;;;;;;;5084694;28;20020;-46
2024/01/02 01:30:24;;;;;;;9.48;6.50;;;;;;;;;;5075178;28;20052;-46
2024/01/02 01:32:50;;;;;;;10.70;7.07;;;;;;;;;;5068911;28;20024;-47
2024/01/02 01:35:15;;;;;;;8.15;7.20;;;;;;;;;;5074462;28;20632;-46
2024/01/02 01:37:41;;;;;;;10.43;6.25;;;;;;;;;;5081976;28;20498;-46
2024/01/02 01:40:08;;;;;;;7.80;5.60;;;;;;;;;;5075596;28;20048;-45
2024/01/02 01:42:33;;;;;;;9.07;5.63;;;;;;;;;;5073555;28;20032;-45
2024/01/02 01:44:59;;;;;;;8.82;5.10;;;;;;;;;;5072193;28;20075;-46
2024/01/02 01:47:24;;;;;;;11.07;6.25;;;;;;;;;;5077103;28;20028;-45
2024/01/02 01:49:50;;;;;;;8.25;5.82;;;;;;;;;;5073905;28;20438;-49
2024/01/02 01:52:16;;;;;;;8.50;5.93;;;;;;;;;;5076794;28;20068;-47
2024/01/02 01:54:41;;;;;;;8.27;5.80;;;;;;;;;;5075750;28;21251;-48
2024/01/02 01:57:07;;;;;;;9.98;6.65;;;;;;;;;;5088370;28;20519;-48
2024/01/02 01:59:33;;;;;;;8.13;5.15;;;;;;;;;;5075451;28;20060;-47
2024/01/02 02:01:59;;;;;;;7.32;6.03;;;;;;;;;;5076446;28;20023;-48
2024/01/02 02:04:25;;;;;;;7.50;4.85;;;;;;;;;;5073521;28;20429;-45
2024/01/02 02:06:52;;;;;;;9.27;5.43;;;;;;;;;;5077369;28;20035;-47
2024/01/02 02:09:18;;;;;;;7.18;5.93;;;;;;;;;;5072319;28;20043;-46
2024/01/02 02:11:44;;;;;;;7.68;5.90;;;;;;;;;;5081026;28;20401;-44
2024/01/02 02:14:10;;;;;;;8.30;6.13;;;;;;;;;;5073870;28;20032;-47
2024/01/02 02:16:36;;;;;;;10.27;6.22;;;;;;;;;;5075658;28;20025;-44
2024/01/02 02:19:01;;;;;;;6.90;5.80;;;;;;;;;;5076458;28;20047;-45
2024/01/02 02:21:27;;;;;;;8.90;6.80;;;;;;;;;;5080126;28;20032;-48
2024/01/02 02:23:52;;;;;;;6.20;4.80;;;;;;;;;;5091822;28;20032;-44
2024/01/02 02:26:18;;;;;;;7.07;4.68;;;;;;;;;;5086364;28;20024;-47
2024/01/02 02:28:43;;;;;;;7.18;4.85;;;;;;;;;;5079623;28;20052;-48
2024/01/02 02:31:09;;;;;;;7.30;4.43;;;;;;;;;;5070603;28;20403;-47
2024/01/02 02:33:34;;;;;;;8.00;5.15;;;;;;;;;;5073443;28;20107;-46
2024/01/02 02:36:02;;;;;;;7.28;5.07;;;;;;;;;;5066503;28;20031;-49
2024/01/02 02:38:27;;;;;;;6.70;5.18;;;;;;;;;;5082012;28;20046;-47
2024/01/02 02:40:53;;;;;;;6.80;5.18;;;;;;;;;;5076197;28;20076;-47
2024/01/02 02:43:18;;;;;;;7.65;4.40;;;;;;;;;;5068998;28;20682;-44
2024/01/02 02:45:43;;;;;;;8.45;4.97;;;;;;;;;;5088718;28;20674;-45
2024/01/02 02:48:09;;;;;;;6.63;5.32;;;;;;;;;;5078904;28;20042;-45
2024/01/02 02:50:34;;;;;;;7.03;4.68;;;;;;;;;;5087297;28;20071;-46
2024/01/02 02:53:00;;;;;;;6.97;4.05;;;;;;;;;;5074757;28;20085;-48
2024/01/02 02:55:25;;;;;;;7.05;4.43;;;;;;;;;;5076695;28;20036;-47
2024/01/02 02:57:50;;;;;;;6.70;4.43;;;;;;;;;;5078299;28;20028;-48
2024/01/02 03:00:16;;;;;;;6.57;4.25;;;;;;;;;;5079168;28;20123;-48
2024/01/02 03:02:41;;;;;;;5.22;4.63;;;;;;;;;;5074451;28;20052;-46
2024/01/02 03:05:08;;;;;;;5.60;3.75;;;;;;;;;;5078960;28;20163;-47
2024/01/02 03:07:33;;;;;;;5.82;4.30;;;;;;;;;;5077602;28;20024;-44
2024/01/02 03:09:59;;;;;;;5.22;3.97;;;;;;;;;;5084890;28;20036;-46
2024/01/02 03:12:24;;;;;;;7.90;6.97;;;;;;;;;;5075280;28;20024;-45
2024/01/02 03:14:49;;;;;;;6.97;4.90;;;;;;;;;;5080820;28;20040;-44
2024/01/02 03:17:15;;;;;;;5.40;3.88;;;;;;;;;;5089211;28;20041;-45
2024/01/02 03:19:41;;;;;;;6.60;4.38;;;;;;;;;;5077333;28;20547;-47
2024/01/02 03:22:06;;;;;;;6.80;4.22;;;;;;;;;;5077779;28;20029;-46
2024/01/02 03:24:32;;;;;;;7.53;4.93;;;;;;;;;;5073643;28;20029;-46
2024/01/02 03:26:57;;;;;;;8.75;5.88;;;;;;;;;;5087129;28;20024;-44
2024/01/02 03:29:26;;;;;;;6.53;5.72;;;;;;;;;;5075168;28;20036;-49
2024/01/02 03:31:52;;;;;;;7.40;4.75;;;;;;;;;;5076497;28;20028;-46
2024/01/02 03:34:17;;;;;;;5.53;4.75;;;;;;;;;;5072294;28;20029;-49
2024/01/02 03:36:42;;;;;;;8.90;5.43;;;;;;;;;;5084809;28;20016;-50
2024/01/02 03:39:08;;;;;;;8.20;5.40;;;;;;;;;;5081652;28;20044;-50
2024/01/02 03:41:33;;;;;;;7.95;5.13;;;;;;;;;;5074475;28;20032;-51
2024/01/02 03:43:59;;;;;;;8.00;5.28;;;;;;;;;;5073283;28;20398;-45
2024/01/02 03:46:24;;;;;;;9.32;6.20;;;;;;;;;;5078761;28;20575;-44
2024/01/02 03:48:49;;;;;;;8.63;5.50;;;;;;;;;;5082096;28;20437;-44
2024/01/02 03:51:15;;;;;;;7.57;5.28;;;;;;;;;;5080373;28;20642;-48
2024/01/02 03:53:40;;;;;;;7.93;4.60;;;;;;;;;;5074992;28;20041;-45
2024/01/02 03:56:06;;;;;;;5.82;5.22;;;;;;;;;;5076784;28;20473;-47
2024/01/02 03:58:31;;;;;;;6.28;4.93;;;;;;;;;;5078461;28;20557;-46
2024/01/02 04:00:57;;;;;;;8.55;5.05;;;;;;;;;;5076110;28;20032;-45
2024/01/02 04:03:23;;;;;;;5.18;3.90;;;;;;;;;;5077966;28;20032;-45
2024/01/02 04:05:49;;;;;;;8.23;4.90;;;;;;;;;;5076436;28;20020;-46
2024/01/02 04:08:14;;;;;;;4.63;4.00;;;;;;;;;;5077347;28;20496;-45
2024/01/02 04:10:40;;;;;;;7.05;4.60;;;;;;;;;;5074985;28;20025;-47
2024/01/02 04:13:06;;;;;;;6.25;4.97;;;;;;;;;;5075256;28;20040;-47
2024/01/02 04:15:32;;;;;;;7.72;4.47;;;;;;;;;;5076589;28;20072;-48
2024/01/02 04:17:57;;;;;;;5.60;4.00;;;;;;;;;;5075442;28;20028;-44
2024/01/02 04:20:23;;;;;;;6.35;4.50;;;;;;;;;;5077792;28;20529;-46
2024/01/02 04:22:54;;;;;;;6.18;3.13;;;;;;;;;;5061089;28;20108;-52
2024/01/02 04:25:20;;;;;;;5.85;3.92;;;;;;;;;;5077566;28;20048;-48
2024/01/02 04:27:45;;;;;;;5.03;4.32;;;;;;;;;;5085052;28;20093;-48
2024/01/02 04:30:11;;;;;;;4.28;3.47;;;;;;;;;;5082831;28;20032;-49
2024/01/02 04:32:37;;;;;;;7.57;5.05;;;;;;;;;;5079594;28;20035;-47
2024/01/02 04:35:03;;;;;;;5.35;3.85;;;;;;;;;;5076013;28;20032;-47
2024/01/02 04:37:28;;;;;;;5.88;3.60;;;;;;;;;;5081871;28;20031;-48
2024/01/02 04:39:53;;;;;;;5.82;3.88;;;;;;;;;;5078236;28;20047;-46
2024/01/02 04:42:19;;;;;;;8.93;4.85;;;;;;;;;;5076924;28;20494;-47
2024/01/02 04:44:44;;;;;;;7.88;4.25;;;;;;;;;;5072926;28;20710;-48
2024/01/02 04:47:10;;;;;;;5.13;3.50;;;;;;;;;;5082628;28;20382;-49
2024/01/02 04:49:35;;;;;;;4.70;3.53;;;;;;;;;;5080683;28;20045;-49
2024/01/02 04:52:00;;;;;;;4.90;3.95;;;;;;;;;;5090208;28;20035;-49
2024/01/02 04:54:26;;;;;;;5.78;4.15;;;;;;;;;;5084193;28;20032;-50
2024/01/02 04:56:51;;;;;;;5.38;4.38;;;;;;;;;;5074590;28;20035;-47
2024/01/02 04:59:17;;;;;;;6.50;2.78;;;;;;;;;;5077910;28;20036;-46
2024/01/02 05:01:42;;;;;;;5.55;2.40;;;;;;;;;;5075522;28;20615;-47
2024/01/02 05:04:08;;;;;;;4.50;2.88;;;;;;;;;;5080233;28;20131;-48
2024/01/02 05:06:33;;;;;;;6.60;3.65;;;;;;;;;;5075624;28;20814;-49
2024/01/02 05:08:58;;;;;;;5.55;3.58;;;;;;;;;;5073550;28;20047;-48
2024/01/02 05:11:24;;;;;;;3.58;3.20;;;;;;;;;;5071575;28;20029;-50
2024/01/02 05:13:49;;;;;;;5.78;3.10;;;;;;;;;;5072947;28;20036;-50
2024/01/02 05:16:15;;;;;;;5.05;3.63;;;;;;;;;;5083627;28;20020;-47
2024/01/02 05:18:40;;;;;;;13.43;4.70;;;;;;;;;;5081670;28;20036;-50
2024/01/02 05:21:07;;;;;;;5.07;3.20;;;;;;;;;;5082522;28;20028;-47
2024/01/02 05:23:33;;;;;;;4.15;3.00;;;;;;;;;;5073870;28;20054;-50
2024/01/02 05:25:58;;;;;;;5.90;2.83;;;;;;;;;;5056549;28;20128;-47
2024/01/02 05:28:24;;;;;;;6.30;2.65;;;;;;;;;;5074882;28;20064;-48
2024/01/02 05:30:49;;;;;;;4.25;2.70;;;;;;;;;;5073298;28;20474;-50
2024/01/02 05:33:14;;;;;;;5.50;3.15;;;;;;;;;;5073354;28;20028;-48
2024/01/02 05:35:40;;;;;;;3.90;2.92;;;;;;;;;;5078928;28;20012;-48
2024/01/02 05:38:05;;;;;;;4.05;2.40;;;;;;;;;;5078273;28;20123;-48
2024/01/02 05:40:31;;;;;;;3.60;1.83;;;;;;;;;;5075443;28;20466;-53
2024/01/02 05:42:56;;;;;;;5.88;2.70;;;;;;;;;;5075833;28;20032;-48
2024/01/02 05:45:22;;;;;;;3.50;2.45;;;;;;;;;;5077735;28;20021;-50
2024/01/02 05:47:47;;;;;;;3.35;2.70;;;;;;;;;;5076469;28;20044;-48
2024/01/02 05:50:13;;;;;;;6.63;2.67;;;;;;;;;;5070610;28;21042;-49
2024/01/02 05:52:41;;;;;;;3.50;1.85;;;;;;;;;;5072333;28;20530;-46
2024/01/02 05:55:07;;;;;;;5.03;2.83;;;;;;;;;;5076847;28;20047;-47
2024/01/02 05:57:33;;;;;;;5.05;2.47;;;;;;;;;;5082105;28;20020;-50
2024/01/02 05:59:58;;;;;;;3.40;2.03;;;;;;;;;;5072517;28;20055;-47
2024/01/02 06:02:23;;;;;;;5.03;1.45;;;;;;;;;;5043912;28;20025;-49
2024/01/02 06:04:49;;;;;;;2.78;2.13;;;;;;;;;;5086112;28;20048;-50
2024/01/02 06:07:14;;;;;;;2.97;1.58;;;;;;;;;;5087087;28;20107;-47
2024/01/02 06:09:39;;;;;;;3.53;1.60;;;;;;;;;;5077430;28;20059;-47
2024/01/02 06:12:05;;;;;;;5.00;2.28;;;;;;;;;;5071054;28;20499;-52
2024/01/02 06:14:30;;;;;;;3.65;1.63;;;;;;;;;;5078915;28;20043;-48
2024/01/02 06:16:57;;;;;;;2.90;1.77;;;;;;;;;;5081256;28;20099;-47
2024/01/02 06:19:22;;;;;;;3.38;2.05;;;;;;;;;;5077733;28;20115;-47
2024/01/02 06:21:48;;;;;;;2.00;1.45;;;;;;;;;;5078110;28;20059;-48
2024/01/02 06:24:13;;;;;;;2.22;1.23;;;;;;;;;;5092389;28;20039;-47
2024/01/02 06:26:40;;;;;;;2.65;1.88;;;;;;;;;;5075547;28;20385;-48
2024/01/02 06:29:05;;;;;;;2.45;1.50;;;;;;;;;;5082724;28;20090;-51
2024/01/02 06:31:31;;;;;;;2.53;2.08;;;;;;;;;;5071721;28;20107;-48
2024/01/02 06:33:56;;;;;;;2.53;1.75;;;;;;;;;;5080506;28;20032;-48
2024/01/02 06:36:22;;;;;;;2.20;1.58;;;;;;;;;;5079124;28;20024;-47
2024/01/02 06:38:47;;;;;;;4.10;3.22;;;;;;;;;;5084795;28;20028;-48
2024/01/02 06:41:13;;;;;;;4.60;2.30;;;;;;;;;;5080496;28;20040;-49
2024/01/02 06:43:39;;;;;;;4.50;3.13;;;;;;;;;;5086575;28;20035;-46
2024/01/02 06:46:04;;;;;;;2.67;2.15;;;;;;;;;;5087098;28;20080;-49
2024/01/02 06:48:29;;;;;;;3.75;2.47;;;;;;;;;;5083448;28;20033;-48
2024/01/02 06:50:55;;;;;;;3.20;1.55;;;;;;;;;;5071178;28;20024;-48
2024/01/02 06:53:21;;;;;;;2.35;1.35;;;;;;;;;;5084204;28;20410;-48
2024/01/02 06:55:46;;;;;;;2.80;1.52;;;;;;;;;;5084242;28;20062;-49
2024/01/02 06:58:11;;;;;;;2.53;1.38;;;;;;;;;;5076413;28;20040;-49
2024/01/02 07:00:37;;;;;;;3.85;3.22;;;;;;;;;;5076068;28;20029;-45
2024/01/02 07:03:04;;;;;;;5.05;3.90;;;;;;;;;;5080423;28;20099;-45
2024/01/02 07:05:29;;;;;;;21.05;14.30;;;;;;;;;;5071348;28;20458;-46
2024/01/02 07:07:55;;;;;;;25.52;16.73;;;;;;;;;;5076262;28;20054;-52
2024/01/02 07:10:20;;;;;;;22.30;13.40;;;;;;;;;;5075342;28;20032;-48
2024/01/02 07:12:46;;;;;;;6.97;3.40;;;;;;;;;;5079422;28;20032;-48
2024/01/02 07:15:12;;;;;;;3.75;2.45;;;;;;;;;;5075351;28;20037;-45
2024/01/02 07:17:37;;;;;;;4.13;2.22;;;;;;;;;;5075492;28;20135;-45
2024/01/02 07:20:03;;;;;;;5.45;1.92;;;;;;;;;;5086438;28;20398;-45
2024/01/02 07:22:29;;;;;;;2.15;1.80;;;;;;;;;;5061223;28;20039;-45
2024/01/02 07:24:55;;;;;;;4.45;1.80;;;;;;;;;;5086164;28;20134;-48
2024/01/02 07:27:21;;;;;;;3.67;2.15;;;;;;;;;;5075409;28;20028;-47
2024/01/02 07:29:47;;;;;;;2.95;1.60;;;;;;;;;;5074064;28;20045;-48
2024/01/02 07:32:12;;;;;;;3.03;1.88;;;;;;;;;;5079146;28;20144;-48
2024/01/02 07:34:38;;;;;;;2.45;1.60;;;;;;;;;;5077067;28;20048;-45
2024/01/02 07:37:03;;;;;;;2.67;2.05;;;;;;;;;;5077898;28;20028;-45
2024/01/02 07:39:29;;;;;;;2.13;1.50;;;;;;;;;;5082373;28;20056;-47
2024/01/02 07:41:54;;;;;;;4.10;1.88;;;;;;;;;;5073829;28;20024;-46
2024/01/02 07:44:21;;;;;;;3.33;1.58;;;;;;;;;;5076745;28;21008;-47
2024/01/02 07:46:46;;;;;;;3.20;2.72;;;;;;;;;;5073685;28;20035;-46
2024/01/02 07:49:12;;;;;;;2.38;1.77;;;;;;;;;;5077876;28;20111;-49
2024/01/02 07:51:37;;;;;;;4.10;2.22;;;;;;;;;;5076176;28;20021;-50
2024/01/02 07:54:03;;;;;;;3.58;2.17;;;;;;;;;;5075635;28;20051;-46
2024/01/02 07:56:30;;;;;;;3.63;2.45;;;;;;;;;;5074681;28;20704;-47
2024/01/02 07:58:56;;;;;;;4.57;2.50;;;;;;;;;;5075723;28;20037;-47
2024/01/02 08:01:22;;;;;;;3.30;2.30;;;;;;;;;;5076862;28;20020;-50
2024/01/02 08:03:47;;;;;;;2.90;2.42;;;;;;;;;;5077904;28;20035;-49
2024/01/02 08:06:13;;;;;;;3.58;1.92;;;;;;;;;;5073400;28;20103;-47
2024/01/02 08:08:38;;;;;;;3.22;2.03;;;;;;;;;;5083420;28;20046;-47
2024/01/02 08:11:04;;;;;;;6.03;3.45;;;;;;;;;;5074156;28;20019;-47
2024/01/02 08:13:30;;;;;;;5.93;3.85;;;;;;;;;;5073743;28;20047;-49
2024/01/02 08:15:55;;;;;;;7.55;2.88;;;;;;;;;;5073123;28;20100;-46
2024/01/02 08:18:20;;;;;;;3.40;1.95;;;;;;;;;;5074070;28;20036;-45
2024/01/02 08:20:46;;;;;;;5.38;2.55;;;;;;;;;;5085454;28;20059;-47
2024/01/02 08:23:12;;;;;;;3.28;1.88;;;;;;;;;;5077199;28;20046;-46
2024/01/02 08:25:39;;;;;;;2.45;1.77;;;;;;;;;;5074760;28;20082;-48
2024/01/02 08:28:06;;;;;;;3.03;2.08;;;;;;;;;;5078170;28;20025;-51
2024/01/02 08:30:32;;;;;;;3.95;2.33;;;;;;;;;;5077170;28;20043;-44
2024/01/02 08:32:57;;;;;;;2.58;1.67;;;;;;;;;;5088763;28;20020;-46
2024/01/02 08:35:23;;;;;;;3.63;2.15;;;;;;;;;;5085644;28;20024;-46
2024/01/02 08:37:49;;;;;;;2.88;1.85;;;;;;;;;;5073989;28;20104;-49
2024/01/02 08:40:15;;;;;;;4.30;1.27;;;;;;;;;;5074070;28;20043;-46
2024/01/02 08:42:41;;;;;;;5.10;3.08;;;;;;;;;;5077269;28;20351;-47
2024/01/02 08:45:09;;;;;;;3.92;2.78;;;;;;;;;;5077867;28;20076;-50
2024/01/02 08:47:36;;;;;;;5.10;4.00;;;;;;;;;;5079748;28;20035;-50
2024/01/02 08:50:02;;;;;;;5.10;2.70;;;;;;;;;;5074310;28;20494;-46
2024/01/02 08:52:27;;;;;;;2.88;1.77;;;;;;;;;;5061934;28;20028;-47
2024/01/02 08:54:53;;;;;;;2.13;1.40;;;;;;;;;;5074660;28;20039;-47
2024/01/02 08:57:18;;;;;;;2.17;1.50;;;;;;;;;;5082857;28;20477;-48
2024/01/02 08:59:43;;;;;;;2.15;1.40;;;;;;;;;;5078189;28;20497;-47
2024/01/02 09:02:09;;;;;;;2.55;1.10;;;;;;;;;;5074505;28;20028;-47
2024/01/02 09:04:35;;;;;;;2.13;1.00;;;;;;;;;;5077142;28;20041;-47
2024/01/02 09:07:00;;;;;;;3.08;1.98;;;;;;;;;;5074127;28;20090;-48
2024/01/02 09:09:26;;;;;;;3.60;2.17;;;;;;;;;;5071844;28;20048;-45
2024/01/02 09:11:51;;;;;;;2.53;1.20;;;;;;;;;;5074433;28;20470;-47
2024/01/02 09:14:16;;;;;;;2.83;1.35;;;;;;;;;;5076387;28;20040;-48
2024/01/02 09:16:43;;;;;;;3.28;2.13;;;;;;;;;;5082113;28;20056;-47
2024/01/02 09:19:09;;;;;;;3.28;2.03;;;;;;;;;;5071493;28;20032;-48
2024/01/02 09:21:34;;;;;;;6.70;3.38;;;;;;;;;;5076244;28;20032;-47
2024/01/02 09:23:59;;;;;;;6.70;4.63;;;;;;;;;;5076359;28;20040;-48
2024/01/02 09:26:25;;;;;;;18.50;12.15;;;;;;;;;;5077526;28;20104;-51
2024/01/02 09:28:50;;;;;;;9.63;6.78;;;;;;;;;;5074107;28;20036;-47
2024/01/02 09:31:18;;;;;;;5.95;4.93;;;;;;;;;;5070642;28;20028;-49
2024/01/02 09:33:44;;;;;;;5.45;4.10;;;;;;;;;;5073661;28;20090;-46
2024/01/02 09:36:09;;;;;;;3.55;2.53;;;;;;;;;;5073762;28;20029;-48
2024/01/02 09:38:38;;;;;;;5.50;2.17;;;;;;;;;;5075030;28;20040;-48
2024/01/02 09:41:26;;;;;;;2.65;1.60;;;;;;;;;;5070825;28;20027;-46
2024/01/02 09:44:01;;;;;;;3.60;1.88;;;;;;;;;;5074647;28;20052;-47
2024/01/02 09:46:51;;;;;;;3.00;1.15;;;;;;;;;;5081414;28;20020;-48
2024/01/02 09:49:36;;;;;;;3.50;1.23;;;;;;;;;;5072517;28;20044;-49
2024/01/02 09:52:30;;;;;;;4.32;1.80;;;;;;;;;;5071490;28;20025;-52
2024/01/02 09:55:09;;;;;;;5.18;1.70;;;;;;;;;;5083700;28;20393;-47
2024/01/02 09:57:45;;;;;;;4.28;2.53;;;;;;;;;;5073614;28;20454;-47
2024/01/02 10:01:09;;;;;;;2.42;0.98;;;;;;;;;;5065421;28;20043;-46
2024/01/02 10:04:04;;;;;;;3.13;1.20;;;;;;;;;;5043864;28;20033;-53
2024/01/02 10:06:50;;;;;;;2.75;1.67;;;;;;;;;;5086867;28;20031;-44
2024/01/02 10:09:54;;;;;;;1.30;1.13;;;;;;;;;;5081838;28;20040;-47
2024/01/02 10:12:45;;;;;;;2.88;1.20;;;;;;;;;;5078361;28;20060;-45
2024/01/02 10:15:25;;;;;;;2.72;1.15;;;;;;;;;;5071685;28;20067;-47
2024/01/02 10:18:03;;;;;;;4.68;2.33;;;;;;;;;;5080013;28;20111;-49
2024/01/02 10:21:03;;;;;;;5.28;1.85;;;;;;;;;;5077885;28;20047;-50
2024/01/02 10:23:44;;;;;;;3.22;1.98;;;;;;;;;;5077156;28;20036;-48
2024/01/02 10:26:09;;;;;;;6.20;2.22;;;;;;;;;;5070561;28;20355;-47
2024/01/02 10:28:43;;;;;;;3.70;1.67;;;;;;;;;;5082527;28;20032;-46
2024/01/02 10:31:21;;;;;;;2.83;1.50;;;;;;;;;;5077865;28;20083;-48
2024/01/02 10:34:15;;;;;;;2.42;1.60;;;;;;;;;;5078592;28;20562;-49
2024/01/02 10:36:50;;;;;;;3.53;1.35;;;;;;;;;;5071544;28;20049;-48
2024/01/02 10:39:35;;;;;;;3.03;1.90;;;;;;;;;;5070583;28;20044;-49
2024/01/02 10:42:28;;;;;;;3.65;2.60;;;;;;;;;;5079254;28;20019;-47
2024/01/02 10:45:26;;;;;;;4.22;1.85;;;;;;;;;;5074749;28;20037;-49
2024/01/02 10:48:19;;;;;;;2.72;1.45;;;;;;;;;;5081403;28;20106;-50
2024/01/02 10:50:57;;;;;;;3.53;1.42;;;;;;;;;;5078536;28;20045;-51
2024/01/02 10:53:41;;;;;;;3.80;2.25;;;;;;;;;;5071919;28;20052;-49
2024/01/02 10:56:25;;;;;;;4.22;1.58;;;;;;;;;;5082940;28;20028;-48
2024/01/02 10:59:03;;;;;;;3.67;2.17;;;;;;;;;;5079101;28;20085;-47
2024/01/02 11:01:30;;;;;;;6.93;2.63;;;;;;;;;;5068897;28;20294;-47
2024/01/02 11:04:14;;;;;;;3.45;1.55;;;;;;;;;;5077344;28;20041;-48
2024/01/02 11:06:55;;;;;;;4.97;2.33;;;;;;;;;;5078073;28;20024;-48
2024/01/02 11:09:26;;;;;;;4.65;1.88;;;;;;;;;;5075945;28;20045;-50
2024/01/02 11:11:54;;;;;;;3.70;2.55;;;;;;;;;;5078308;28;20382;-47
2024/01/02 11:14:23;;;;;;;5.88;2.22;;;;;;;;;;5073579;28;20040;-47
2024/01/02 11:16:51;;;;;;;5.57;2.30;;;;;;;;;;5078444;28;20013;-47
2024/01/02 11:19:23;;;;;;;4.53;2.15;;;;;;;;;;5073880;28;20213;-47
2024/01/02 11:22:06;;;;;;;6.13;4.03;;;;;;;;;;5069714;28;20505;-51
2024/01/02 11:24:33;;;;;;;4.47;2.28;;;;;;;;;;5076425;28;20117;-49
2024/01/02 11:27:03;;;;;;;4.50;1.90;;;;;;;;;;5076603;28;20025;-49
2024/01/02 11:29:35;;;;;;;4.97;2.20;;;;;;;;;;5076756;28;20048;-50
2024/01/02 11:32:08;;;;;;;8.40;2.33;;;;;;;;;;5078339;28;20453;-47
2024/01/02 11:34:49;;;;;;;9.20;3.42;;;;;;;;;;5080258;28;20037;-48
2024/01/02 11:37:29;;;;;;;6.07;1.90;;;;;;;;;;5079543;28;20025;-48
2024/01/02 11:40:33;;;;;;;6.30;1.25;;;;;;;;;;5069275;28;20086;-47
2024/01/02 11:43:01;;;;;;;3.47;1.63;;;;;;;;;;5077403;28;20096;-46
2024/01/02 11:45:33;;;;;;;6.10;1.48;;;;;;;;;;5087087;28;20073;-48
2024/01/02 11:48:12;;;;;;;7.80;1.90;;;;;;;;;;5082876;28;20024;-47
2024/01/02 11:50:51;;;;;;;3.50;1.85;;;;;;;;;;5073245;28;20108;-45
2024/01/02 11:53:40;;;;;;;6.00;1.63;;;;;;;;;;5084745;28;20441;-54
2024/01/02 11:56:10;;;;;;;6.85;0.98;;;;;;;;;;5082157;28;20036;-46
2024/01/02 11:59:12;;;;;;;5.35;1.85;;;;;;;;;;5077529;28;20127;-47
2024/01/02 12:02:03;;;;;;;4.68;1.80;;;;;;;;;;5084644;28;20025;-46
2024/01/02 12:04:51;;;;;;;5.93;2.20;;;;;;;;;;5075547;28;20035;-46
2024/01/02 12:07:27;;;;;;;7.28;3.53;;;;;;;;;;5070360;28;20028;-48
2024/01/02 12:09:54;;;;;;;7.78;4.93;;;;;;;;;;5074104;28;20032;-50
2024/01/02 12:12:38;;;;;;;10.07;6.68;;;;;;;;;;5076381;28;20031;-47
2024/01/02 12:15:30;;;;;;;6.68;4.30;;;;;;;;;;5079682;28;20024;-52
2024/01/02 12:18:02;;;;;;;4.65;2.80;;;;;;;;;;5072093;28;20482;-52
2024/01/02 12:20:33;;;;;;;8.07;4.00;;;;;;;;;;5074250;28;20094;-48
2024/01/02 12:22:59;;;;;;;9.02;5.50;;;;;;;;;;5064610;28;20056;-45
2024/01/02 12:25:25;;;;;;;9.88;3.45;;;;;;;;;;5075876;28;20028;-48
2024/01/02 12:27:53;;;;;;;8.45;4.00;;;;;;;;;;5090731;28;20025;-46
2024/01/02 12:30:28;;;;;;;6.40;3.13;;;;;;;;;;5083542;28;20124;-45
2024/01/02 12:33:23;;;;;;;5.95;2.15;;;;;;;;;;5085256;28;20477;-47
2024/01/02 12:36:11;;;;;;;6.07;4.00;;;;;;;;;;5073109;28;20049;-48
2024/01/02 12:38:49;;;;;;;8.07;3.67;;;;;;;;;;5079693;28;20047;-47
2024/01/02 12:41:25;;;;;;;7.03;3.70;;;;;;;;;;5076057;28;20090;-45
2024/01/02 12:43:59;;;;;;;6.20;2.65;;;;;;;;;;5087943;28;20037;-49
2024/01/02 12:46:27;;;;;;;7.18;3.33;;;;;;;;;;5077942;28;20036;-49
2024/01/02 12:49:10;;;;;;;3.78;2.35;;;;;;;;;;5087803;28;20036;-49
2024/01/02 12:51:37;;;;;;;6.32;2.40;;;;;;;;;;5089775;28;20024;-48
2024/01/02 12:54:04;;;;;;;6.72;2.55;;;;;;;;;;5073538;28;20041;-48
2024/01/02 12:56:33;;;;;;;5.53;3.22;;;;;;;;;;5077454;28;20047;-50
2024/01/02 12:59:03;;;;;;;5.07;1.40;;;;;;;;;;5074128;28;20048;-45
2024/01/02 13:01:31;;;;;;;5.60;1.40;;;;;;;;;;5076269;28;20524;-45
2024/01/02 13:03:58;;;;;;;8.63;3.70;;;;;;;;;;5072078;28;20104;-46
2024/01/02 13:06:24;;;;;;;6.50;3.92;;;;;;;;;;5076592;28;20085;-46
2024/01/02 13:08:50;;;;;;;15.43;10.23;;;;;;;;;;5077638;28;20039;-47
2024/01/02 13:11:17;;;;;;;6.32;4.82;;;;;;;;;;5074470;28;20032;-45
2024/01/02 13:13:43;;;;;;;6.82;4.35;;;;;;;;;;5074146;28;20142;-48
2024/01/02 13:16:08;;;;;;;5.82;2.83;;;;;;;;;;5075748;28;20060;-50
2024/01/02 13:18:34;;;;;;;5.82;2.30;;;;;;;;;;5080936;28;20094;-49
2024/01/02 13:21:00;;;;;;;3.85;2.97;;;;;;;;;;5080926;28;20500;-46
2024/01/02 13:23:26;;;;;;;7.50;4.85;;;;;;;;;;5084555;28;20404;-52
2024/01/02 13:25:52;;;;;;;5.72;2.72;;;;;;;;;;5078424;28;20482;-49
2024/01/02 13:28:22;;;;;;;11.57;2.75;;;;;;;;;;5071147;28;20110;-47
2024/01/02 13:30:50;;;;;;;7.22;2.13;;;;;;;;;;5078120;28;20017;-49
2024/01/02 13:33:24;;;;;;;10.00;2.15;;;;;;;;;;5073406;28;20028;-49
2024/01/02 13:36:04;;;;;;;5.03;2.30;;;;;;;;;;5079271;28;20035;-50
2024/01/02 13:38:38;;;;;;;8.18;1.92;;;;;;;;;;5079411;28;20199;-49
2024/01/02 13:41:04;;;;;;;6.32;2.10;;;;;;;;;;5077271;28;20145;-52
2024/01/02 13:43:33;;;;;;;7.10;2.05;;;;;;;;;;5072988;28;20033;-48
2024/01/02 13:46:09;;;;;;;8.30;2.50;;;;;;;;;;5073765;28;20450;-46
2024/01/02 13:48:35;;;;;;;6.22;1.58;;;;;;;;;;5080233;28;20570;-48
2024/01/02 13:53:00;;;;;;;6.88;3.08;;;;;;;;;;5052854;28;20635;-45
2024/01/02 13:55:28;;;;;;;4.20;2.40;;;;;;;;;;5003891;28;20058;-48
2024/01/02 13:57:54;;;;;;;9.85;4.00;;;;;;;;;;5006312;28;20084;-47
2024/01/02 14:00:19;;;;;;;8.75;2.40;;;;;;;;;;5003966;28;20037;-46
2024/01/02 14:02:56;;;;;;;6.65;2.63;;;;;;;;;;5014366;28;20022;-44
2024/01/02 14:05:24;;;;;;;6.80;2.47;;;;;;;;;;5030775;28;20057;-49
2024/01/02 14:07:51;;;;;;;8.75;2.80;;;;;;;;;;5009456;28;20018;-49
2024/01/02 14:10:24;;;;;;;10.23;4.13;;;;;;;;;;5002125;28;20764;-53
2024/01/02 14:12:50;;;;;;;9.25;3.50;;;;;;;;;;5035514;28;20019;-48
2024/01/02 14:15:23;;;;;;;8.60;3.05;;;;;;;;;;5030240;28;20088;-49
2024/01/02 14:18:07;;;;;;;8.57;2.47;;;;;;;;;;5010797;28;20101;-51
2024/01/02 14:20:40;;;;;;;10.43;1.80;;;;;;;;;;5010728;28;20045;-46
2024/01/02 14:23:20;;;;;;;4.90;1.50;;;;;;;;;;5011328;28;20054;-47
2024/01/02 14:26:14;;;;;;;7.90;3.22;;;;;;;;;;5004930;28;20019;-45
2024/01/02 14:28:55;;;;;;;;;;;;;;;;;;5005632;28;20056;-47
2024/01/02 14:31:26;;;;;;;6.07;2.80;;;;;;;;;;5016953;28;20390;-44
2024/01/02 14:34:15;;;;;;;10.93;3.75;;;;;;;;;;5011590;28;20038;-45
2024/01/02 14:37:07;;;;;;;7.22;3.70;;;;;;;;;;5032528;28;20460;-47
2024/01/02 14:39:57;;;;;;;6.40;1.55;;;;;;;;;;5036508;28;20196;-49
2024/01/02 14:43:02;;;;;;;6.85;2.08;;;;;;;;;;5004431;28;20156;-47
2024/01/02 14:45:50;;;;;;;6.47;2.00;;;;;;;;;;5010254;28;20037;-50
2024/01/02 14:48:25;;;;;;;7.18;2.05;;;;;;;;;;5005878;28;20057;-49
2024/01/02 14:50:57;;;;;;;6.78;1.77;;;;;;;;;;5007941;28;20050;-49
2024/01/02 14:53:41;;;;;;;7.90;2.20;;;;;;;;;;4999114;28;20042;-47
2024/01/02 14:56:28;;;;;;;7.18;2.25;;;;;;;;;;5027349;28;20034;-50